createdAt,value
2023-04-22T00:04:05.043Z,6.97
2023-04-22T00:08:57.015Z,6.94
2023-04-22T00:13:48.613Z,6.90
2023-04-22T00:18:40.693Z,6.86
2023-04-22T00:23:32.522Z,6.79
2023-04-22T00:28:24.343Z,6.76
2023-04-22T00:33:15.941Z,6.75
2023-04-22T00:38:07.612Z,6.70
2023-04-22T00:43:00.414Z,6.71
2023-04-22T00:47:52.565Z,6.69
2023-04-22T00:52:44.537Z,6.66
2023-04-22T00:57:36.447Z,6.64
2023-04-22T01:02:29.484Z,6.61
2023-04-22T01:07:21.798Z,6.56
2023-04-22T01:12:13.458Z,6.45
2023-04-22T01:17:05.195Z,6.41
2023-04-22T01:21:58.093Z,6.34
2023-04-22T01:26:50.058Z,6.30
2023-04-22T01:31:41.958Z,6.25
2023-04-22T01:36:33.967Z,6.19
2023-04-22T01:41:25.798Z,6.12
2023-04-22T01:46:18.347Z,6.08
2023-04-22T01:51:09.989Z,6.07
2023-04-22T01:56:02.154Z,6.06
2023-04-22T02:00:53.990Z,6.09
2023-04-22T02:05:45.636Z,6.14
2023-04-22T02:10:37.302Z,6.16
2023-04-22T02:15:28.990Z,6.20
2023-04-22T02:20:20.623Z,6.25
2023-04-22T02:25:12.307Z,6.34
2023-04-22T02:30:04.625Z,6.41
2023-04-22T02:34:56.251Z,6.49
2023-04-22T02:39:47.838Z,6.57
2023-04-22T02:44:39.640Z,6.60
2023-04-22T02:49:31.252Z,6.66
2023-04-22T02:54:22.856Z,6.70
2023-04-22T02:59:14.650Z,6.73
2023-04-22T03:04:06.469Z,6.76
2023-04-22T03:08:58.251Z,6.78
2023-04-22T03:13:49.881Z,6.80
2023-04-22T03:18:41.615Z,6.84
2023-04-22T03:23:33.752Z,6.83
2023-04-22T03:28:25.350Z,6.87
2023-04-22T03:33:17.157Z,6.88
2023-04-22T03:38:08.898Z,6.90
2023-04-22T03:43:00.488Z,6.93
2023-04-22T03:47:52.177Z,6.94
2023-04-22T03:52:44.003Z,6.94
2023-04-22T03:57:35.913Z,6.94
2023-04-22T04:02:27.816Z,6.88
2023-04-22T04:07:19.589Z,6.87
2023-04-22T04:12:11.165Z,6.82
2023-04-22T04:17:03.692Z,6.84
2023-04-22T04:21:55.719Z,6.84
2023-04-22T04:26:47.424Z,6.84
2023-04-22T04:31:39.272Z,6.81
2023-04-22T04:36:32.891Z,6.79
2023-04-22T04:41:27.087Z,6.78
2023-04-22T04:46:20.942Z,6.75
2023-04-22T04:51:13.075Z,6.72
2023-04-22T04:56:04.970Z,6.67
2023-04-22T05:00:56.598Z,6.59
2023-04-22T05:05:49.128Z,6.58
2023-04-22T05:10:42.437Z,6.55
2023-04-22T05:15:34.334Z,6.56
2023-04-22T05:20:26.190Z,6.55
2023-04-22T05:25:18.033Z,6.59
2023-04-22T05:30:10.556Z,6.59
2023-04-22T05:35:03.092Z,6.60
2023-04-22T05:39:54.802Z,6.60
2023-04-22T05:44:46.437Z,6.55
2023-04-22T05:49:38.251Z,6.58
2023-04-22T05:54:30.069Z,6.63
2023-04-22T05:59:21.899Z,6.78
2023-04-22T06:04:13.953Z,7.03
2023-04-22T06:09:07.287Z,7.46
2023-04-22T06:13:58.937Z,7.74
2023-04-22T06:18:50.645Z,7.86
2023-04-22T06:23:43.337Z,8.06
2023-04-22T06:28:35.071Z,8.50
2023-04-22T06:33:27.004Z,9.06
2023-04-22T06:38:18.640Z,9.55
2023-04-22T06:43:10.415Z,10.04
2023-04-22T06:48:02.140Z,10.59
2023-04-22T06:52:54.555Z,11.13
2023-04-22T06:57:46.193Z,11.75
2023-04-22T07:02:37.992Z,12.29
2023-04-22T07:07:29.837Z,12.79
2023-04-22T07:12:21.511Z,13.17
2023-04-22T07:17:13.159Z,13.67
2023-04-22T07:22:05.117Z,14.27
2023-04-22T07:26:56.739Z,14.76
2023-04-22T07:31:48.501Z,15.16
2023-04-22T07:36:40.474Z,15.12
2023-04-22T07:41:32.121Z,15.34
2023-04-22T07:46:23.903Z,15.74
2023-04-22T07:51:15.600Z,15.92
2023-04-22T07:56:07.177Z,15.95
2023-04-22T08:00:58.891Z,16.01
2023-04-22T08:05:50.570Z,15.92
2023-04-22T08:10:42.263Z,15.99
2023-04-22T08:15:33.957Z,16.56
2023-04-22T08:20:26.086Z,17.05
2023-04-22T08:25:17.793Z,17.41
2023-04-22T08:30:10.049Z,18.01
2023-04-22T08:35:04.743Z,18.31
2023-04-22T08:39:57.129Z,18.37
2023-04-22T08:44:49.107Z,18.22
2023-04-22T08:49:41.147Z,17.85
2023-04-22T08:54:34.409Z,17.21
2023-04-22T08:59:26.385Z,16.60
2023-04-22T09:04:19.007Z,16.06
2023-04-22T09:09:10.748Z,15.90
2023-04-22T09:14:06.067Z,16.81
2023-04-22T09:18:58.510Z,17.57
2023-04-22T09:23:53.911Z,18.00
2023-04-22T09:28:56.569Z,18.25
2023-04-22T09:33:58.552Z,17.94
2023-04-22T09:39:02.142Z,17.42
2023-04-22T09:43:56.271Z,17.42
2023-04-22T09:48:50.505Z,18.12
2023-04-22T09:53:42.120Z,18.30
2023-04-22T09:58:39.538Z,17.76
2023-04-22T10:03:32.005Z,18.19
2023-04-22T10:08:23.809Z,19.02
2023-04-22T10:13:15.838Z,18.99
2023-04-22T10:18:10.883Z,19.06
2023-04-22T10:23:05.324Z,18.90
2023-04-22T10:28:09.000Z,18.65
2023-04-22T10:33:27.759Z,18.38
2023-04-22T10:38:19.575Z,18.15
2023-04-22T10:43:12.873Z,17.98
2023-04-22T10:48:05.113Z,17.87
2023-04-22T10:53:03.185Z,17.68
2023-04-22T10:57:54.801Z,17.41
2023-04-22T11:02:51.219Z,17.16
2023-04-22T11:07:43.081Z,16.80
2023-04-22T11:12:42.169Z,16.57
2023-04-22T11:17:34.905Z,16.43
2023-04-22T11:22:26.924Z,16.44
2023-04-22T11:27:25.751Z,16.35
2023-04-22T11:32:17.378Z,16.30
2023-04-22T11:37:09.096Z,16.13
2023-04-22T11:42:00.981Z,16.04
2023-04-22T11:46:52.561Z,16.08
2023-04-22T11:51:55.373Z,16.05
2023-04-22T11:56:49.000Z,16.09
2023-04-22T12:01:42.202Z,16.05
2023-04-22T12:06:33.844Z,16.18
2023-04-22T12:11:25.493Z,16.28
2023-04-22T12:16:20.663Z,16.31
2023-04-22T12:21:14.198Z,16.52
2023-04-22T12:26:05.844Z,16.70
2023-04-22T12:30:57.492Z,16.65
2023-04-22T12:35:52.535Z,16.63
2023-04-22T12:40:44.286Z,16.65
2023-04-22T12:45:36.019Z,16.68
2023-04-22T12:50:27.742Z,16.45
2023-04-22T12:55:20.931Z,16.44
2023-04-22T13:00:16.267Z,16.24
2023-04-22T13:05:08.809Z,16.26
2023-04-22T13:10:00.609Z,16.26
2023-04-22T13:14:52.224Z,16.35
2023-04-22T13:19:44.051Z,16.21
2023-04-22T13:24:35.721Z,16.22
2023-04-22T13:29:27.376Z,16.23
2023-04-22T13:34:19.015Z,16.43
2023-04-22T13:39:11.513Z,16.39
2023-04-22T13:44:04.514Z,16.18
2023-04-22T13:48:56.771Z,15.99
2023-04-22T13:53:48.689Z,15.72
2023-04-22T13:58:41.127Z,15.56
2023-04-22T14:03:33.026Z,15.33
2023-04-22T14:08:24.729Z,15.20
2023-04-22T14:13:16.411Z,15.11
2023-04-22T14:18:08.314Z,15.12
2023-04-22T14:23:00.997Z,15.13
2023-04-22T14:27:52.585Z,15.07
2023-04-22T14:32:44.425Z,14.94
2023-04-22T14:37:36.290Z,14.80
2023-04-22T14:42:28.230Z,14.71
2023-04-22T14:47:19.865Z,14.69
2023-04-22T14:52:11.690Z,14.71
2023-04-22T14:57:04.182Z,14.91
2023-04-22T15:01:57.008Z,15.12
2023-04-22T15:06:48.772Z,15.20
2023-04-22T15:11:41.053Z,15.17
2023-04-22T15:16:32.748Z,15.09
2023-04-22T15:21:24.404Z,15.06
2023-04-22T15:26:16.521Z,15.14
2023-04-22T15:31:08.139Z,15.15
2023-04-22T15:35:59.783Z,15.17
2023-04-22T15:40:51.407Z,15.14
2023-04-22T15:45:43.202Z,15.03
2023-04-22T15:50:34.946Z,14.85
2023-04-22T15:55:26.610Z,14.89
2023-04-22T16:00:19.462Z,14.84
2023-04-22T16:05:11.915Z,14.74
2023-04-22T16:10:04.423Z,14.78
2023-04-22T16:14:56.133Z,14.77
2023-04-22T16:19:47.855Z,14.62
2023-04-22T16:24:40.551Z,14.51
2023-04-22T16:29:33.379Z,14.42
2023-04-22T16:34:24.966Z,14.35
2023-04-22T16:39:17.044Z,14.33
2023-04-22T16:44:09.536Z,14.31
2023-04-22T16:49:01.379Z,14.31
2023-04-22T16:53:53.039Z,14.23
2023-04-22T16:58:44.759Z,14.24
2023-04-22T17:03:36.624Z,14.30
2023-04-22T17:08:29.051Z,14.29
2023-04-22T17:13:20.928Z,14.21
2023-04-22T17:18:14.319Z,14.27
2023-04-22T17:23:06.114Z,14.21
2023-04-22T17:27:57.851Z,14.18
2023-04-22T17:32:49.843Z,14.06
2023-04-22T17:37:41.529Z,13.90
2023-04-22T17:42:44.665Z,13.89
2023-04-22T17:47:37.725Z,13.75
2023-04-22T17:52:29.550Z,13.63
2023-04-22T17:57:21.189Z,13.55
2023-04-22T18:02:13.140Z,13.45
2023-04-22T18:07:04.861Z,13.33
2023-04-22T18:11:59.156Z,13.28
2023-04-22T18:16:50.904Z,13.20
2023-04-22T18:21:56.914Z,13.16
2023-04-22T18:26:52.784Z,13.07
2023-04-22T18:31:44.633Z,12.93
2023-04-22T18:36:36.282Z,12.85
2023-04-22T18:41:27.898Z,12.87
2023-04-22T18:46:19.558Z,12.89
2023-04-22T18:51:11.379Z,12.86
2023-04-22T18:56:03.064Z,12.77
2023-04-22T19:00:54.682Z,12.77
2023-04-22T19:05:46.501Z,12.69
2023-04-22T19:10:38.359Z,12.57
2023-04-22T19:15:30.018Z,12.57
2023-04-22T19:20:21.752Z,12.50
2023-04-22T19:25:13.409Z,12.40
2023-04-22T19:30:06.874Z,12.42
2023-04-22T19:34:58.557Z,12.43
2023-04-22T19:39:50.222Z,12.53
2023-04-22T19:44:46.605Z,12.59
2023-04-22T19:49:39.026Z,12.59
2023-04-22T19:54:31.882Z,12.60
2023-04-22T19:59:23.945Z,12.59
2023-04-22T20:04:16.060Z,12.53
2023-04-22T20:09:10.429Z,12.49
2023-04-22T20:14:03.236Z,12.41
2023-04-22T20:18:55.376Z,12.14
2023-04-22T20:23:48.340Z,11.78
2023-04-22T20:28:48.232Z,11.58
2023-04-22T20:33:40.361Z,11.32
2023-04-22T20:38:36.912Z,11.19
2023-04-22T20:43:28.563Z,11.22
2023-04-22T20:48:20.287Z,11.26
2023-04-22T20:53:12.565Z,11.30
2023-04-22T20:58:04.251Z,11.31
2023-04-22T21:02:56.345Z,11.25
2023-04-22T21:07:52.443Z,11.11
2023-04-22T21:12:44.501Z,10.92
2023-04-22T21:17:40.818Z,10.82
2023-04-22T21:22:33.014Z,10.70
2023-04-22T21:27:24.939Z,10.65
2023-04-22T21:32:17.150Z,10.65
2023-04-22T21:37:09.443Z,10.60
2023-04-22T21:42:02.546Z,10.59
2023-04-22T21:46:54.291Z,10.68
2023-04-22T21:51:46.082Z,10.73
2023-04-22T21:56:37.864Z,10.73
2023-04-22T22:01:29.429Z,10.71
2023-04-22T22:06:21.171Z,10.72
2023-04-22T22:11:23.960Z,10.67
2023-04-22T22:16:21.812Z,10.65
2023-04-22T22:21:13.425Z,10.60
2023-04-22T22:26:05.134Z,10.48
2023-04-22T22:31:02.347Z,10.39
2023-04-22T22:35:54.199Z,10.29
2023-04-22T22:40:45.794Z,10.21
2023-04-22T22:45:37.414Z,10.17
2023-04-22T22:50:29.077Z,10.11
2023-04-22T22:55:20.906Z,10.06
2023-04-22T23:00:13.782Z,10.03
2023-04-22T23:05:10.569Z,10.01
2023-04-22T23:10:02.608Z,9.94
2023-04-22T23:14:54.291Z,9.89
2023-04-22T23:19:46.411Z,9.86
2023-04-22T23:24:39.109Z,9.86
2023-04-22T23:29:31.557Z,9.87
2023-04-22T23:34:24.085Z,9.86
2023-04-22T23:39:15.792Z,9.85
2023-04-22T23:44:07.440Z,9.80
2023-04-22T23:48:59.515Z,9.76
2023-04-22T23:53:51.073Z,9.66
2023-04-22T23:58:42.925Z,9.62
